sensor_id;sensor_type;location;lat;lon;timestamp;temperature;humidity
66740;DHT22;53653;52.188;8.602;2023-09-19T00:00:42;16.58;87.45
66740;DHT22;53653;52.188;8.602;2023-09-19T00:03:09;16.51;87.68
66740;DHT22;53653;52.188;8.602;2023-09-19T00:05:36;16.53;87.77
66740;DHT22;53653;52.188;8.602;2023-09-19T00:08:02;16.55;87.50
66740;DHT22;53653;52.188;8.602;2023-09-19T00:10:31;16.53;87.66
66740;DHT22;53653;52.188;8.602;2023-09-19T00:13:00;16.55;87.68
66740;DHT22;53653;52.188;8.602;2023-09-19T00:15:31;16.48;87.83
66740;DHT22;53653;52.188;8.602;2023-09-19T00:17:58;16.48;88.11
66740;DHT22;53653;52.188;8.602;2023-09-19T00:20:24;16.49;87.75
66740;DHT22;53653;52.188;8.602;2023-09-19T00:22:50;16.56;87.56
66740;DHT22;53653;52.188;8.602;2023-09-19T00:25:20;16.52;87.68
66740;DHT22;53653;52.188;8.602;2023-09-19T00:27:45;16.56;87.49
66740;DHT22;53653;52.188;8.602;2023-09-19T00:30:15;16.55;87.63
66740;DHT22;53653;52.188;8.602;2023-09-19T00:32:47;16.56;87.43
66740;DHT22;53653;52.188;8.602;2023-09-19T00:35:14;16.56;87.30
66740;DHT22;53653;52.188;8.602;2023-09-19T00:37:42;16.56;87.24
66740;DHT22;53653;52.188;8.602;2023-09-19T00:40:09;16.52;87.38
66740;DHT22;53653;52.188;8.602;2023-09-19T00:42:39;16.53;87.32
66740;DHT22;53653;52.188;8.602;2023-09-19T00:45:07;16.49;87.63
66740;DHT22;53653;52.188;8.602;2023-09-19T00:47:35;16.51;87.44
66740;DHT22;53653;52.188;8.602;2023-09-19T00:50:00;16.52;87.09
66740;DHT22;53653;52.188;8.602;2023-09-19T00:52:28;16.52;86.66
66740;DHT22;53653;52.188;8.602;2023-09-19T00:54:54;16.51;86.48
66740;DHT22;53653;52.188;8.602;2023-09-19T00:57:20;16.51;86.29
66740;DHT22;53653;52.188;8.602;2023-09-19T00:59:48;16.56;86.40
66740;DHT22;53653;52.188;8.602;2023-09-19T01:02:16;16.62;85.70
66740;DHT22;53653;52.188;8.602;2023-09-19T01:04:41;16.62;85.69
66740;DHT22;53653;52.188;8.602;2023-09-19T01:07:08;16.63;85.73
66740;DHT22;53653;52.188;8.602;2023-09-19T01:09:34;16.65;85.78
66740;DHT22;53653;52.188;8.602;2023-09-19T01:12:02;16.65;85.98
66740;DHT22;53653;52.188;8.602;2023-09-19T01:15:13;16.62;86.04
66740;DHT22;53653;52.188;8.602;2023-09-19T01:17:30;16.65;85.92
66740;DHT22;53653;52.188;8.602;2023-09-19T01:20:15;16.60;85.67
66740;DHT22;53653;52.188;8.602;2023-09-19T01:28:34;16.60;85.27
66740;DHT22;53653;52.188;8.602;2023-09-19T01:31:04;16.56;84.81
66740;DHT22;53653;52.188;8.602;2023-09-19T01:33:53;16.59;84.47
66740;DHT22;53653;52.188;8.602;2023-09-19T01:36:22;16.59;84.10
66740;DHT22;53653;52.188;8.602;2023-09-19T01:38:50;16.58;83.54
66740;DHT22;53653;52.188;8.602;2023-09-19T01:41:38;16.58;83.52
66740;DHT22;53653;52.188;8.602;2023-09-19T01:44:09;16.56;83.41
66740;DHT22;53653;52.188;8.602;2023-09-19T01:46:40;16.59;83.20
66740;DHT22;53653;52.188;8.602;2023-09-19T01:49:18;16.59;82.64
66740;DHT22;53653;52.188;8.602;2023-09-19T01:52:02;16.56;82.61
66740;DHT22;53653;52.188;8.602;2023-09-19T01:54:36;16.49;82.14
66740;DHT22;53653;52.188;8.602;2023-09-19T01:57:42;16.47;81.41
66740;DHT22;53653;52.188;8.602;2023-09-19T02:00:12;16.48;81.27
66740;DHT22;53653;52.188;8.602;2023-09-19T02:02:42;16.47;81.04
66740;DHT22;53653;52.188;8.602;2023-09-19T02:05:10;16.47;81.10
66740;DHT22;53653;52.188;8.602;2023-09-19T02:07:35;16.45;81.08
66740;DHT22;53653;52.188;8.602;2023-09-19T02:10:04;16.42;81.34
66740;DHT22;53653;52.188;8.602;2023-09-19T02:12:31;16.36;80.81
66740;DHT22;53653;52.188;8.602;2023-09-19T02:15:02;16.36;80.95
66740;DHT22;53653;52.188;8.602;2023-09-19T02:17:28;16.33;81.27
66740;DHT22;53653;52.188;8.602;2023-09-19T02:19:56;16.32;81.15
66740;DHT22;53653;52.188;8.602;2023-09-19T02:22:22;16.32;81.46
66740;DHT22;53653;52.188;8.602;2023-09-19T02:24:48;16.36;81.46
66740;DHT22;53653;52.188;8.602;2023-09-19T02:27:14;16.29;81.91
66740;DHT22;53653;52.188;8.602;2023-09-19T02:29:41;16.32;81.59
66740;DHT22;53653;52.188;8.602;2023-09-19T02:32:08;16.32;81.79
66740;DHT22;53653;52.188;8.602;2023-09-19T02:34:35;16.25;81.74
66740;DHT22;53653;52.188;8.602;2023-09-19T02:37:10;16.25;81.88
66740;DHT22;53653;52.188;8.602;2023-09-19T02:39:36;16.26;81.78
66740;DHT22;53653;52.188;8.602;2023-09-19T02:42:02;16.24;81.95
66740;DHT22;53653;52.188;8.602;2023-09-19T02:44:29;16.17;82.18
66740;DHT22;53653;52.188;8.602;2023-09-19T02:46:55;16.20;81.84
66740;DHT22;53653;52.188;8.602;2023-09-19T02:49:22;16.17;81.87
66740;DHT22;53653;52.188;8.602;2023-09-19T02:51:48;16.17;82.02
66740;DHT22;53653;52.188;8.602;2023-09-19T02:54:14;16.14;81.96
66740;DHT22;53653;52.188;8.602;2023-09-19T02:56:41;16.12;81.82
66740;DHT22;53653;52.188;8.602;2023-09-19T02:59:06;16.12;81.98
66740;DHT22;53653;52.188;8.602;2023-09-19T03:01:32;16.14;81.77
66740;DHT22;53653;52.188;8.602;2023-09-19T03:03:59;16.08;81.82
66740;DHT22;53653;52.188;8.602;2023-09-19T03:06:24;16.08;81.66
66740;DHT22;53653;52.188;8.602;2023-09-19T03:08:50;16.15;81.57
66740;DHT22;53653;52.188;8.602;2023-09-19T03:11:17;16.12;81.63
66740;DHT22;53653;52.188;8.602;2023-09-19T03:13:52;16.08;81.54
66740;DHT22;53653;52.188;8.602;2023-09-19T03:16:17;16.10;81.55
66740;DHT22;53653;52.188;8.602;2023-09-19T03:18:44;16.05;81.62
66740;DHT22;53653;52.188;8.602;2023-09-19T03:21:10;16.01;81.75
66740;DHT22;53653;52.188;8.602;2023-09-19T03:23:36;16.02;81.76
66740;DHT22;53653;52.188;8.602;2023-09-19T03:26:01;16.00;81.76
66740;DHT22;53653;52.188;8.602;2023-09-19T03:28:27;15.91;81.99
66740;DHT22;53653;52.188;8.602;2023-09-19T03:31:05;15.84;82.08
66740;DHT22;53653;52.188;8.602;2023-09-19T03:33:32;15.83;81.64
66740;DHT22;53653;52.188;8.602;2023-09-19T03:36:01;15.74;81.92
66740;DHT22;53653;52.188;8.602;2023-09-19T03:38:30;15.73;82.02
66740;DHT22;53653;52.188;8.602;2023-09-19T03:40:56;15.64;81.81
66740;DHT22;53653;52.188;8.602;2023-09-19T03:43:21;15.66;81.84
66740;DHT22;53653;52.188;8.602;2023-09-19T03:45:47;15.60;81.91
66740;DHT22;53653;52.188;8.602;2023-09-19T03:48:13;15.56;81.89
66740;DHT22;53653;52.188;8.602;2023-09-19T03:50:39;15.49;82.19
66740;DHT22;53653;52.188;8.602;2023-09-19T03:53:05;15.53;81.94
66740;DHT22;53653;52.188;8.602;2023-09-19T03:55:33;15.46;82.08
66740;DHT22;53653;52.188;8.602;2023-09-19T03:58:03;15.43;81.88
66740;DHT22;53653;52.188;8.602;2023-09-19T04:00:29;15.38;82.09
66740;DHT22;53653;52.188;8.602;2023-09-19T04:02:55;15.35;82.03
66740;DHT22;53653;52.188;8.602;2023-09-19T04:05:22;15.31;82.17
66740;DHT22;53653;52.188;8.602;2023-09-19T04:07:48;15.35;81.62
66740;DHT22;53653;52.188;8.602;2023-09-19T04:10:13;15.28;81.95
66740;DHT22;53653;52.188;8.602;2023-09-19T04:12:40;15.21;82.23
66740;DHT22;53653;52.188;8.602;2023-09-19T04:15:06;15.22;82.08
66740;DHT22;53653;52.188;8.602;2023-09-19T04:17:32;15.23;81.98
66740;DHT22;53653;52.188;8.602;2023-09-19T04:20:01;15.21;81.87
66740;DHT22;53653;52.188;8.602;2023-09-19T04:22:26;15.21;81.94
66740;DHT22;53653;52.188;8.602;2023-09-19T04:24:51;15.21;82.05
66740;DHT22;53653;52.188;8.602;2023-09-19T04:27:17;15.25;81.58
66740;DHT22;53653;52.188;8.602;2023-09-19T04:29:44;15.26;81.47
66740;DHT22;53653;52.188;8.602;2023-09-19T04:32:10;15.19;81.49
66740;DHT22;53653;52.188;8.602;2023-09-19T04:34:36;15.19;81.44
66740;DHT22;53653;52.188;8.602;2023-09-19T04:37:01;15.22;81.66
66740;DHT22;53653;52.188;8.602;2023-09-19T04:39:28;15.21;81.53
66740;DHT22;53653;52.188;8.602;2023-09-19T04:41:54;15.22;81.67
66740;DHT22;53653;52.188;8.602;2023-09-19T04:44:20;15.22;81.43
66740;DHT22;53653;52.188;8.602;2023-09-19T04:46:46;15.16;81.48
66740;DHT22;53653;52.188;8.602;2023-09-19T04:49:11;15.16;81.61
66740;DHT22;53653;52.188;8.602;2023-09-19T04:51:38;15.16;81.60
66740;DHT22;53653;52.188;8.602;2023-09-19T04:54:03;15.15;81.81
66740;DHT22;53653;52.188;8.602;2023-09-19T04:56:29;15.16;81.59
66740;DHT22;53653;52.188;8.602;2023-09-19T04:58:55;15.12;81.91
66740;DHT22;53653;52.188;8.602;2023-09-19T05:01:20;15.14;81.59
66740;DHT22;53653;52.188;8.602;2023-09-19T05:03:48;15.15;81.45
66740;DHT22;53653;52.188;8.602;2023-09-19T05:06:21;15.09;81.71
66740;DHT22;53653;52.188;8.602;2023-09-19T05:08:50;15.08;81.42
66740;DHT22;53653;52.188;8.602;2023-09-19T05:11:18;15.05;81.56
66740;DHT22;53653;52.188;8.602;2023-09-19T05:13:48;15.06;81.53
66740;DHT22;53653;52.188;8.602;2023-09-19T05:16:16;15.02;81.55
66740;DHT22;53653;52.188;8.602;2023-09-19T05:18:41;14.98;81.73
66740;DHT22;53653;52.188;8.602;2023-09-19T05:21:07;14.88;82.14
66740;DHT22;53653;52.188;8.602;2023-09-19T05:23:33;14.81;82.31
66740;DHT22;53653;52.188;8.602;2023-09-19T05:25:59;14.80;82.33
66740;DHT22;53653;52.188;8.602;2023-09-19T05:28:25;14.71;82.52
66740;DHT22;53653;52.188;8.602;2023-09-19T05:30:52;14.77;82.43
66740;DHT22;53653;52.188;8.602;2023-09-19T05:33:19;14.73;82.54
66740;DHT22;53653;52.188;8.602;2023-09-19T05:35:44;14.71;82.60
66740;DHT22;53653;52.188;8.602;2023-09-19T05:38:12;14.77;82.11
66740;DHT22;53653;52.188;8.602;2023-09-19T05:40:39;14.80;82.15
66740;DHT22;53653;52.188;8.602;2023-09-19T05:43:08;14.71;82.13
66740;DHT22;53653;52.188;8.602;2023-09-19T05:45:34;14.83;81.58
66740;DHT22;53653;52.188;8.602;2023-09-19T05:48:09;14.89;81.44
66740;DHT22;53653;52.188;8.602;2023-09-19T05:50:35;14.91;81.23
66740;DHT22;53653;52.188;8.602;2023-09-19T05:53:01;14.94;81.19
66740;DHT22;53653;52.188;8.602;2023-09-19T05:55:26;14.99;80.73
66740;DHT22;53653;52.188;8.602;2023-09-19T05:57:54;15.12;80.51
66740;DHT22;53653;52.188;8.602;2023-09-19T06:00:20;15.09;80.47
66740;DHT22;53653;52.188;8.602;2023-09-19T06:02:55;15.14;79.87
66740;DHT22;53653;52.188;8.602;2023-09-19T06:05:23;15.21;79.78
66740;DHT22;53653;52.188;8.602;2023-09-19T06:07:48;15.33;79.27
66740;DHT22;53653;52.188;8.602;2023-09-19T06:10:15;15.42;79.02
66740;DHT22;53653;52.188;8.602;2023-09-19T06:12:44;15.56;78.18
66740;DHT22;53653;52.188;8.602;2023-09-19T06:15:10;15.59;77.96
66740;DHT22;53653;52.188;8.602;2023-09-19T06:17:50;15.57;77.92
66740;DHT22;53653;52.188;8.602;2023-09-19T06:20:16;15.74;77.16
66740;DHT22;53653;52.188;8.602;2023-09-19T06:22:43;15.77;76.59
66740;DHT22;53653;52.188;8.602;2023-09-19T06:25:13;15.86;76.34
66740;DHT22;53653;52.188;8.602;2023-09-19T06:27:53;15.86;76.07
66740;DHT22;53653;52.188;8.602;2023-09-19T06:30:23;15.74;76.05
66740;DHT22;53653;52.188;8.602;2023-09-19T06:32:49;15.98;75.59
66740;DHT22;53653;52.188;8.602;2023-09-19T06:35:15;16.24;74.65
66740;DHT22;53653;52.188;8.602;2023-09-19T06:37:42;16.25;74.46
66740;DHT22;53653;52.188;8.602;2023-09-19T06:40:12;16.17;73.95
66740;DHT22;53653;52.188;8.602;2023-09-19T06:42:43;16.39;73.41
66740;DHT22;53653;52.188;8.602;2023-09-19T06:45:11;16.35;73.34
66740;DHT22;53653;52.188;8.602;2023-09-19T06:47:39;16.29;72.84
66740;DHT22;53653;52.188;8.602;2023-09-19T06:50:05;16.52;72.96
66740;DHT22;53653;52.188;8.602;2023-09-19T06:52:34;16.73;72.32
66740;DHT22;53653;52.188;8.602;2023-09-19T06:55:00;16.77;71.97
66740;DHT22;53653;52.188;8.602;2023-09-19T06:57:28;16.69;72.26
66740;DHT22;53653;52.188;8.602;2023-09-19T06:59:56;16.41;73.12
66740;DHT22;53653;52.188;8.602;2023-09-19T07:02:21;16.35;73.13
66740;DHT22;53653;52.188;8.602;2023-09-19T07:04:47;16.22;73.80
66740;DHT22;53653;52.188;8.602;2023-09-19T07:07:12;16.02;74.39
66740;DHT22;53653;52.188;8.602;2023-09-19T07:09:39;16.04;74.27
66740;DHT22;53653;52.188;8.602;2023-09-19T07:12:05;15.94;74.25
66740;DHT22;53653;52.188;8.602;2023-09-19T07:14:30;15.86;74.76
66740;DHT22;53653;52.188;8.602;2023-09-19T07:16:56;15.76;74.88
66740;DHT22;53653;52.188;8.602;2023-09-19T07:19:22;15.83;74.88
66740;DHT22;53653;52.188;8.602;2023-09-19T07:21:47;15.87;74.84
66740;DHT22;53653;52.188;8.602;2023-09-19T07:24:14;15.87;74.78
66740;DHT22;53653;52.188;8.602;2023-09-19T07:26:39;16.02;74.55
66740;DHT22;53653;52.188;8.602;2023-09-19T07:29:05;16.10;74.28
66740;DHT22;53653;52.188;8.602;2023-09-19T07:31:32;16.17;73.96
66740;DHT22;53653;52.188;8.602;2023-09-19T07:33:57;16.20;73.84
66740;DHT22;53653;52.188;8.602;2023-09-19T07:36:23;16.49;73.20
66740;DHT22;53653;52.188;8.602;2023-09-19T07:38:49;16.49;72.94
66740;DHT22;53653;52.188;8.602;2023-09-19T07:41:15;16.60;72.38
66740;DHT22;53653;52.188;8.602;2023-09-19T07:43:41;16.96;71.82
66740;DHT22;53653;52.188;8.602;2023-09-19T07:46:07;17.14;71.50
66740;DHT22;53653;52.188;8.602;2023-09-19T07:48:37;16.90;71.63
66740;DHT22;53653;52.188;8.602;2023-09-19T07:51:07;17.28;71.08
66740;DHT22;53653;52.188;8.602;2023-09-19T07:53:34;17.61;69.82
66740;DHT22;53653;52.188;8.602;2023-09-19T07:56:07;17.76;70.08
66740;DHT22;53653;52.188;8.602;2023-09-19T07:58:34;17.82;69.65
66740;DHT22;53653;52.188;8.602;2023-09-19T08:01:07;18.03;69.33
66740;DHT22;53653;52.188;8.602;2023-09-19T08:03:33;18.12;68.90
66740;DHT22;53653;52.188;8.602;2023-09-19T08:06:02;17.96;69.51
66740;DHT22;53653;52.188;8.602;2023-09-19T08:08:28;17.93;69.48
66740;DHT22;53653;52.188;8.602;2023-09-19T08:10:55;17.68;70.02
66740;DHT22;53653;52.188;8.602;2023-09-19T08:13:25;17.76;70.30
66740;DHT22;53653;52.188;8.602;2023-09-19T08:15:51;18.16;69.32
66740;DHT22;53653;52.188;8.602;2023-09-19T08:18:18;18.06;69.05
66740;DHT22;53653;52.188;8.602;2023-09-19T08:20:49;17.85;69.84
66740;DHT22;53653;52.188;8.602;2023-09-19T08:23:16;17.66;70.80
66740;DHT22;53653;52.188;8.602;2023-09-19T08:25:43;17.28;71.10
66740;DHT22;53653;52.188;8.602;2023-09-19T08:28:09;17.23;71.88
66740;DHT22;53653;52.188;8.602;2023-09-19T08:30:37;17.18;71.67
66740;DHT22;53653;52.188;8.602;2023-09-19T08:33:05;17.13;72.07
66740;DHT22;53653;52.188;8.602;2023-09-19T08:35:32;17.28;71.56
66740;DHT22;53653;52.188;8.602;2023-09-19T08:37:57;17.61;70.96
66740;DHT22;53653;52.188;8.602;2023-09-19T08:40:26;17.56;70.78
66740;DHT22;53653;52.188;8.602;2023-09-19T08:42:55;17.62;70.95
66740;DHT22;53653;52.188;8.602;2023-09-19T08:45:25;17.55;70.95
66740;DHT22;53653;52.188;8.602;2023-09-19T08:50:33;17.65;70.64
66740;DHT22;53653;52.188;8.602;2023-09-19T08:53:01;17.72;70.56
66740;DHT22;53653;52.188;8.602;2023-09-19T08:55:31;17.78;70.64
66740;DHT22;53653;52.188;8.602;2023-09-19T08:58:04;17.92;70.37
66740;DHT22;53653;52.188;8.602;2023-09-19T09:00:32;17.76;70.41
66740;DHT22;53653;52.188;8.602;2023-09-19T09:03:00;17.85;69.88
66740;DHT22;53653;52.188;8.602;2023-09-19T09:05:26;17.86;70.37
66740;DHT22;53653;52.188;8.602;2023-09-19T09:07:53;18.09;69.97
66740;DHT22;53653;52.188;8.602;2023-09-19T09:10:22;17.95;69.13
66740;DHT22;53653;52.188;8.602;2023-09-19T09:12:51;17.78;69.85
66740;DHT22;53653;52.188;8.602;2023-09-19T09:15:19;18.00;69.90
66740;DHT22;53653;52.188;8.602;2023-09-19T09:17:50;18.16;69.69
66740;DHT22;53653;52.188;8.602;2023-09-19T09:20:19;18.00;69.46
66740;DHT22;53653;52.188;8.602;2023-09-19T09:22:55;18.27;68.72
66740;DHT22;53653;52.188;8.602;2023-09-19T09:25:21;18.13;69.33
66740;DHT22;53653;52.188;8.602;2023-09-19T09:28:01;18.03;69.55
66740;DHT22;53653;52.188;8.602;2023-09-19T09:30:36;18.12;68.32
66740;DHT22;53653;52.188;8.602;2023-09-19T09:33:13;18.06;68.34
66740;DHT22;53653;52.188;8.602;2023-09-19T09:35:52;18.13;69.02
66740;DHT22;53653;52.188;8.602;2023-09-19T09:38:19;18.34;69.00
66740;DHT22;53653;52.188;8.602;2023-09-19T09:40:50;18.24;68.32
66740;DHT22;53653;52.188;8.602;2023-09-19T09:43:29;18.55;67.66
66740;DHT22;53653;52.188;8.602;2023-09-19T09:46:15;18.44;67.97
66740;DHT22;53653;52.188;8.602;2023-09-19T09:49:02;18.53;67.18
66740;DHT22;53653;52.188;8.602;2023-09-19T09:51:51;18.82;67.16
66740;DHT22;53653;52.188;8.602;2023-09-19T09:54:26;18.91;66.22
66740;DHT22;53653;52.188;8.602;2023-09-19T09:57:06;18.94;66.08
66740;DHT22;53653;52.188;8.602;2023-09-19T09:59:58;19.12;66.50
66740;DHT22;53653;52.188;8.602;2023-09-19T10:02:35;19.19;64.88
66740;DHT22;53653;52.188;8.602;2023-09-19T10:08:10;19.57;64.54
66740;DHT22;53653;52.188;8.602;2023-09-19T10:10:39;19.13;63.94
66740;DHT22;53653;52.188;8.602;2023-09-19T10:13:09;18.96;64.08
66740;DHT22;53653;52.188;8.602;2023-09-19T10:15:42;18.94;64.74
66740;DHT22;53653;52.188;8.602;2023-09-19T10:18:12;18.96;64.49
66740;DHT22;53653;52.188;8.602;2023-09-19T10:20:45;19.19;64.57
66740;DHT22;53653;52.188;8.602;2023-09-19T10:23:11;19.05;63.12
66740;DHT22;53653;52.188;8.602;2023-09-19T10:25:43;18.99;63.80
66740;DHT22;53653;52.188;8.602;2023-09-19T10:28:13;19.19;63.83
66740;DHT22;53653;52.188;8.602;2023-09-19T10:30:50;19.31;62.56
66740;DHT22;53653;52.188;8.602;2023-09-19T10:33:22;19.33;62.64
66740;DHT22;53653;52.188;8.602;2023-09-19T10:35:49;19.10;62.81
66740;DHT22;53653;52.188;8.602;2023-09-19T10:38:18;19.19;63.07
66740;DHT22;53653;52.188;8.602;2023-09-19T10:40:51;18.98;63.74
66740;DHT22;53653;52.188;8.602;2023-09-19T10:43:20;19.02;63.77
66740;DHT22;53653;52.188;8.602;2023-09-19T10:45:47;19.08;62.98
66740;DHT22;53653;52.188;8.602;2023-09-19T10:48:19;18.88;63.37
66740;DHT22;53653;52.188;8.602;2023-09-19T10:51:15;19.18;63.05
66740;DHT22;53653;52.188;8.602;2023-09-19T10:53:43;19.23;63.20
66740;DHT22;53653;52.188;8.602;2023-09-19T10:56:17;19.46;63.71
66740;DHT22;53653;52.188;8.602;2023-09-19T10:58:45;19.43;62.98
66740;DHT22;53653;52.188;8.602;2023-09-19T11:01:11;19.46;63.37
66740;DHT22;53653;52.188;8.602;2023-09-19T11:03:41;19.56;62.98
66740;DHT22;53653;52.188;8.602;2023-09-19T11:06:17;19.78;62.51
66740;DHT22;53653;52.188;8.602;2023-09-19T11:09:01;19.61;62.47
66740;DHT22;53653;52.188;8.602;2023-09-19T11:11:56;19.40;63.14
66740;DHT22;53653;52.188;8.602;2023-09-19T11:33:27;20.55;59.91
66740;DHT22;53653;52.188;8.602;2023-09-19T11:36:05;20.55;60.07
66740;DHT22;53653;52.188;8.602;2023-09-19T11:46:29;20.39;60.74
66740;DHT22;53653;52.188;8.602;2023-09-19T11:49:05;20.16;60.38
66740;DHT22;53653;52.188;8.602;2023-09-19T11:51:40;20.46;60.07
66740;DHT22;53653;52.188;8.602;2023-09-19T11:54:11;20.60;60.52
66740;DHT22;53653;52.188;8.602;2023-09-19T11:56:51;20.16;60.25
66740;DHT22;53653;52.188;8.602;2023-09-19T11:59:31;20.22;60.08
66740;DHT22;53653;52.188;8.602;2023-09-19T12:02:05;20.09;61.04
66740;DHT22;53653;52.188;8.602;2023-09-19T12:04:35;19.97;61.13
66740;DHT22;53653;52.188;8.602;2023-09-19T12:07:14;19.92;61.24
66740;DHT22;53653;52.188;8.602;2023-09-19T12:10:02;20.04;61.06
66740;DHT22;53653;52.188;8.602;2023-09-19T12:12:28;20.09;60.83
66740;DHT22;53653;52.188;8.602;2023-09-19T12:14:56;19.87;61.03
66740;DHT22;53653;52.188;8.602;2023-09-19T12:17:40;19.87;60.45
66740;DHT22;53653;52.188;8.602;2023-09-19T12:20:10;19.99;60.16
66740;DHT22;53653;52.188;8.602;2023-09-19T12:22:43;20.32;60.04
66740;DHT22;53653;52.188;8.602;2023-09-19T12:25:09;20.32;59.53
66740;DHT22;53653;52.188;8.602;2023-09-19T12:27:47;20.40;58.97
66740;DHT22;53653;52.188;8.602;2023-09-19T12:30:14;20.53;58.01
66740;DHT22;53653;52.188;8.602;2023-09-19T12:32:40;20.40;57.55
66740;DHT22;53653;52.188;8.602;2023-09-19T12:35:07;20.67;57.69
66740;DHT22;53653;52.188;8.602;2023-09-19T12:37:45;20.50;57.67
66740;DHT22;53653;52.188;8.602;2023-09-19T12:40:13;20.43;58.66
66740;DHT22;53653;52.188;8.602;2023-09-19T12:42:43;20.28;58.71
66740;DHT22;53653;52.188;8.602;2023-09-19T12:45:10;20.35;57.96
66740;DHT22;53653;52.188;8.602;2023-09-19T12:47:39;20.12;58.56
66740;DHT22;53653;52.188;8.602;2023-09-19T12:50:13;20.28;57.96
66740;DHT22;53653;52.188;8.602;2023-09-19T12:52:40;20.66;57.50
66740;DHT22;53653;52.188;8.602;2023-09-19T12:55:06;20.91;55.94
66740;DHT22;53653;52.188;8.602;2023-09-19T12:57:35;20.94;56.17
66740;DHT22;53653;52.188;8.602;2023-09-19T13:00:04;21.11;56.11
66740;DHT22;53653;52.188;8.602;2023-09-19T13:02:37;21.53;55.51
66740;DHT22;53653;52.188;8.602;2023-09-19T13:05:03;21.67;55.02
66740;DHT22;53653;52.188;8.602;2023-09-19T13:07:45;21.71;54.75
66740;DHT22;53653;52.188;8.602;2023-09-19T13:10:15;21.53;54.73
66740;DHT22;53653;52.188;8.602;2023-09-19T13:12:43;21.20;55.32
66740;DHT22;53653;52.188;8.602;2023-09-19T13:15:13;21.28;55.24
66740;DHT22;53653;52.188;8.602;2023-09-19T13:17:46;21.38;54.83
66740;DHT22;53653;52.188;8.602;2023-09-19T13:20:24;21.53;54.00
66740;DHT22;53653;52.188;8.602;2023-09-19T13:22:53;21.53;53.69
66740;DHT22;53653;52.188;8.602;2023-09-19T13:25:20;21.66;54.07
66740;DHT22;53653;52.188;8.602;2023-09-19T13:30:14;22.01;53.53
66740;DHT22;53653;52.188;8.602;2023-09-19T13:32:40;21.99;53.18
66740;DHT22;53653;52.188;8.602;2023-09-19T13:35:07;21.73;53.59
66740;DHT22;53653;52.188;8.602;2023-09-19T13:37:37;21.80;53.24
66740;DHT22;53653;52.188;8.602;2023-09-19T13:40:10;21.92;53.30
66740;DHT22;53653;52.188;8.602;2023-09-19T13:42:36;21.86;53.69
66740;DHT22;53653;52.188;8.602;2023-09-19T13:45:05;21.73;54.13
66740;DHT22;53653;52.188;8.602;2023-09-19T13:47:31;21.45;54.46
66740;DHT22;53653;52.188;8.602;2023-09-19T13:50:01;21.71;54.65
66740;DHT22;53653;52.188;8.602;2023-09-19T13:52:27;21.45;54.70
66740;DHT22;53653;52.188;8.602;2023-09-19T13:54:55;21.35;55.26
66740;DHT22;53653;52.188;8.602;2023-09-19T13:57:27;21.42;54.37
66740;DHT22;53653;52.188;8.602;2023-09-19T13:59:54;21.34;54.98
66740;DHT22;53653;52.188;8.602;2023-09-19T14:02:23;21.34;54.69
66740;DHT22;53653;52.188;8.602;2023-09-19T14:04:49;21.38;55.54
66740;DHT22;53653;52.188;8.602;2023-09-19T14:07:16;21.24;56.00
66740;DHT22;53653;52.188;8.602;2023-09-19T14:09:44;21.53;55.58
66740;DHT22;53653;52.188;8.602;2023-09-19T14:12:09;21.46;56.06
66740;DHT22;53653;52.188;8.602;2023-09-19T14:14:35;21.65;55.84
66740;DHT22;53653;52.188;8.602;2023-09-19T14:17:03;21.45;55.18
66740;DHT22;53653;52.188;8.602;2023-09-19T14:19:28;21.46;55.02
66740;DHT22;53653;52.188;8.602;2023-09-19T14:21:54;21.38;56.02
66740;DHT22;53653;52.188;8.602;2023-09-19T14:24:23;21.28;54.88
66740;DHT22;53653;52.188;8.602;2023-09-19T14:26:49;21.10;55.72
66740;DHT22;53653;52.188;8.602;2023-09-19T14:29:15;21.18;55.74
66740;DHT22;53653;52.188;8.602;2023-09-19T14:31:41;21.21;55.53
66740;DHT22;53653;52.188;8.602;2023-09-19T14:34:07;21.04;55.58
66740;DHT22;53653;52.188;8.602;2023-09-19T14:36:35;20.94;54.52
66740;DHT22;53653;52.188;8.602;2023-09-19T14:39:01;21.11;54.20
66740;DHT22;53653;52.188;8.602;2023-09-19T14:41:26;21.11;54.67
66740;DHT22;53653;52.188;8.602;2023-09-19T14:43:52;21.12;54.20
66740;DHT22;53653;52.188;8.602;2023-09-19T14:46:18;21.07;53.85
66740;DHT22;53653;52.188;8.602;2023-09-19T14:48:45;21.12;54.44
66740;DHT22;53653;52.188;8.602;2023-09-19T14:51:13;21.24;54.51
66740;DHT22;53653;52.188;8.602;2023-09-19T14:53:40;21.45;54.09
66740;DHT22;53653;52.188;8.602;2023-09-19T14:56:10;21.30;53.79
66740;DHT22;53653;52.188;8.602;2023-09-19T14:58:37;21.20;54.29
66740;DHT22;53653;52.188;8.602;2023-09-19T15:01:11;21.24;54.47
66740;DHT22;53653;52.188;8.602;2023-09-19T15:03:37;20.97;54.47
66740;DHT22;53653;52.188;8.602;2023-09-19T15:06:07;20.86;54.30
66740;DHT22;53653;52.188;8.602;2023-09-19T15:08:34;20.60;53.39
66740;DHT22;53653;52.188;8.602;2023-09-19T15:11:07;20.53;53.62
66740;DHT22;53653;52.188;8.602;2023-09-19T15:13:34;20.46;53.98
66740;DHT22;53653;52.188;8.602;2023-09-19T15:16:04;20.40;54.95
66740;DHT22;53653;52.188;8.602;2023-09-19T15:18:30;20.33;54.34
66740;DHT22;53653;52.188;8.602;2023-09-19T15:21:08;20.39;54.23
66740;DHT22;53653;52.188;8.602;2023-09-19T15:23:34;20.37;54.38
66740;DHT22;53653;52.188;8.602;2023-09-19T15:26:06;20.36;54.70
66740;DHT22;53653;52.188;8.602;2023-09-19T15:28:32;20.28;54.77
66740;DHT22;53653;52.188;8.602;2023-09-19T15:31:00;20.28;55.45
66740;DHT22;53653;52.188;8.602;2023-09-19T15:33:26;20.15;55.76
66740;DHT22;53653;52.188;8.602;2023-09-19T15:36:14;20.14;55.74
66740;DHT22;53653;52.188;8.602;2023-09-19T15:38:59;20.11;56.23
66740;DHT22;53653;52.188;8.602;2023-09-19T15:41:35;20.08;56.64
66740;DHT22;53653;52.188;8.602;2023-09-19T15:44:03;19.98;57.07
66740;DHT22;53653;52.188;8.602;2023-09-19T15:46:30;20.05;56.46
66740;DHT22;53653;52.188;8.602;2023-09-19T15:48:56;19.97;57.17
66740;DHT22;53653;52.188;8.602;2023-09-19T15:51:23;20.01;56.88
66740;DHT22;53653;52.188;8.602;2023-09-19T15:53:50;20.02;57.16
66740;DHT22;53653;52.188;8.602;2023-09-19T15:56:17;19.95;57.55
66740;DHT22;53653;52.188;8.602;2023-09-19T15:58:53;19.91;57.97
66740;DHT22;53653;52.188;8.602;2023-09-19T16:01:20;19.94;58.23
66740;DHT22;53653;52.188;8.602;2023-09-19T16:03:48;19.98;58.56
66740;DHT22;53653;52.188;8.602;2023-09-19T16:06:16;19.89;58.34
66740;DHT22;53653;52.188;8.602;2023-09-19T16:08:44;19.88;58.39
66740;DHT22;53653;52.188;8.602;2023-09-19T16:11:11;19.89;58.47
66740;DHT22;53653;52.188;8.602;2023-09-19T16:13:37;19.87;58.55
66740;DHT22;53653;52.188;8.602;2023-09-19T16:16:03;19.74;58.55
66740;DHT22;53653;52.188;8.602;2023-09-19T16:18:29;19.68;59.22
66740;DHT22;53653;52.188;8.602;2023-09-19T16:21:03;19.70;59.50
66740;DHT22;53653;52.188;8.602;2023-09-19T16:23:32;19.54;59.70